createdAt,value
2019-02-21T00:00:24.677Z,1007.9
2019-02-21T00:01:24.392Z,1007.93
2019-02-21T00:02:24.410Z,1007.91
2019-02-21T00:03:24.429Z,1007.88
2019-02-21T00:04:24.448Z,1007.9
2019-02-21T00:05:24.472Z,1007.95
2019-02-21T00:06:24.484Z,1007.93
2019-02-21T00:07:24.502Z,1007.9
2019-02-21T00:08:24.525Z,1007.97
2019-02-21T00:09:24.540Z,1007.96
2019-02-21T00:10:24.562Z,1007.96
2019-02-21T00:11:24.576Z,1007.99
2019-02-21T00:12:24.595Z,1007.98
2019-02-21T00:13:24.614Z,1007.96
2019-02-21T00:14:24.631Z,1007.94
2019-02-21T00:15:24.660Z,1008.02
2019-02-21T00:16:24.668Z,1008.04
2019-02-21T00:17:24.687Z,1008.03
2019-02-21T00:18:24.706Z,1008.06
2019-02-21T00:19:24.725Z,1008.02
2019-02-21T00:20:24.744Z,1008.05
2019-02-21T00:21:24.762Z,1008.07
2019-02-21T00:22:24.778Z,1008.07
2019-02-21T00:23:24.796Z,1008.05
2019-02-21T00:24:24.839Z,1008.09
2019-02-21T00:25:24.834Z,1008.11
2019-02-21T00:26:24.852Z,1008.09
2019-02-21T00:27:24.875Z,1008.06
2019-02-21T00:28:24.890Z,1008.09
2019-02-21T00:29:24.907Z,1008.07
2019-02-21T00:30:34.757Z,1008.12
2019-02-21T00:31:24.947Z,1008.14
2019-02-21T00:32:24.964Z,1008.14
2019-02-21T00:33:24.980Z,1008.12
2019-02-21T00:34:25.000Z,1008.15
2019-02-21T00:35:25.018Z,1008.15
2019-02-21T00:36:25.040Z,1008.14
2019-02-21T00:37:25.055Z,1008.14
2019-02-21T00:38:25.074Z,1008.16
2019-02-21T00:39:25.092Z,1008.14
2019-02-21T00:40:25.112Z,1008.13
2019-02-21T00:41:25.128Z,1008.14
2019-02-21T00:42:25.149Z,1008.15
2019-02-21T00:43:25.166Z,1008.11
2019-02-21T00:44:25.184Z,1008.1
2019-02-21T00:45:25.203Z,1008.12
2019-02-21T00:46:25.223Z,1008.13
2019-02-21T00:47:25.240Z,1008.17
2019-02-21T00:48:25.257Z,1008.14
2019-02-21T00:49:25.276Z,1008.16
2019-02-21T00:50:25.298Z,1008.14
2019-02-21T00:51:25.315Z,1008.15
2019-02-21T00:52:25.333Z,1008.16
2019-02-21T00:53:25.353Z,1008.12
2019-02-21T00:54:25.371Z,1008.15
2019-02-21T00:55:27.753Z,1008.13
2019-02-21T00:56:25.405Z,1008.14
2019-02-21T00:57:25.425Z,1008.11
2019-02-21T00:58:25.442Z,1008.12
2019-02-21T00:59:25.462Z,1008.13
2019-02-21T01:00:25.480Z,1008.15
2019-02-21T01:01:25.548Z,1008.14
2019-02-21T01:02:25.516Z,1008.18
2019-02-21T01:03:25.538Z,1008.17
2019-02-21T01:04:25.554Z,1008.1
2019-02-21T01:05:25.572Z,1008.16
2019-02-21T01:06:25.590Z,1008.19
2019-02-21T01:07:25.609Z,1008.17
2019-02-21T01:08:25.628Z,1008.17
2019-02-21T01:09:25.646Z,1008.16
2019-02-21T01:10:25.665Z,1008.21
2019-02-21T01:11:25.682Z,1008.21
2019-02-21T01:12:25.701Z,1008.21
2019-02-21T01:13:25.719Z,1008.16
2019-02-21T01:14:25.739Z,1008.15
2019-02-21T01:15:25.756Z,1008.14
2019-02-21T01:16:25.775Z,1008.14
2019-02-21T01:17:25.792Z,1008.13
2019-02-21T01:18:25.812Z,1008.13
2019-02-21T01:19:25.830Z,1008.14
2019-02-21T01:20:25.848Z,1008.16
2019-02-21T01:21:25.868Z,1008.18
2019-02-21T01:22:25.887Z,1008.17
2019-02-21T01:23:25.908Z,1008.19
2019-02-21T01:24:25.922Z,1008.12
2019-02-21T01:25:25.941Z,1008.12
2019-02-21T01:26:25.960Z,1008.11
2019-02-21T01:27:25.978Z,1008.15
2019-02-21T01:28:25.996Z,1008.17
2019-02-21T01:29:26.019Z,1008.18
2019-02-21T01:30:26.034Z,1008.18
2019-02-21T01:31:26.051Z,1008.18
2019-02-21T01:32:26.070Z,1008.13
2019-02-21T01:33:26.089Z,1008.21
2019-02-21T01:34:26.114Z,1008.19
2019-02-21T01:35:26.126Z,1008.2
2019-02-21T01:36:26.144Z,1008.23
2019-02-21T01:37:26.162Z,1008.16
2019-02-21T01:38:26.183Z,1008.18
2019-02-21T01:39:26.199Z,1008.25
2019-02-21T01:40:26.219Z,1008.23
2019-02-21T01:41:26.275Z,1008.28
2019-02-21T01:42:26.256Z,1008.2
2019-02-21T01:43:26.275Z,1008.21
2019-02-21T01:44:26.293Z,1008.17
2019-02-21T01:45:26.311Z,1008.18
2019-02-21T01:46:26.330Z,1008.15
2019-02-21T01:47:26.348Z,1008.15
2019-02-21T01:48:26.368Z,1008.14
2019-02-21T01:49:26.384Z,1008.09
2019-02-21T01:50:26.403Z,1008.1
2019-02-21T01:51:26.422Z,1008.09
2019-02-21T01:52:26.441Z,1008.1
2019-02-21T01:53:26.460Z,1008.14
2019-02-21T01:54:26.476Z,1008.15
2019-02-21T01:55:26.496Z,1008.11
2019-02-21T01:56:26.516Z,1008.08
2019-02-21T01:57:26.532Z,1008.15
2019-02-21T01:58:26.551Z,1008.13
2019-02-21T01:59:26.570Z,1008.17
2019-02-21T02:00:26.588Z,1008.11
2019-02-21T02:01:26.608Z,1008.13
2019-02-21T02:02:26.627Z,1008.12
2019-02-21T02:03:26.643Z,1008.11
2019-02-21T02:04:26.662Z,1008.12
2019-02-21T02:05:26.682Z,1008.14
2019-02-21T02:06:26.702Z,1008.16
2019-02-21T02:07:26.717Z,1008.16
2019-02-21T02:08:26.736Z,1008.12
2019-02-21T02:09:26.754Z,1008.13
2019-02-21T02:10:26.773Z,1008.12
2019-02-21T02:11:26.791Z,1008.1
2019-02-21T02:12:26.809Z,1008.13
2019-02-21T02:13:26.833Z,1008.13
2019-02-21T02:14:26.847Z,1008.11
2019-02-21T02:15:26.944Z,1008.1
2019-02-21T02:16:26.884Z,1008.15
2019-02-21T02:17:26.903Z,1008.12
2019-02-21T02:18:26.921Z,1008.15
2019-02-21T02:19:26.939Z,1008.12
2019-02-21T02:20:26.958Z,1008.12
2019-02-21T02:21:26.975Z,1008.09
2019-02-21T02:22:26.994Z,1008.1
2019-02-21T02:23:27.013Z,1008.12
2019-02-21T02:24:27.032Z,1008.1
2019-02-21T02:25:27.051Z,1008.06
2019-02-21T02:26:27.068Z,1008.1
2019-02-21T02:27:27.089Z,1008.05
2019-02-21T02:28:27.105Z,1008.11
2019-02-21T02:29:27.127Z,1008.11
2019-02-21T02:30:27.142Z,1008.09
2019-02-21T02:31:27.163Z,1008.1
2019-02-21T02:32:27.190Z,1008.08
2019-02-21T02:33:27.197Z,1008.09
2019-02-21T02:34:27.219Z,1008.08
2019-02-21T02:35:27.238Z,1008.15
2019-02-21T02:36:27.253Z,1008.08
2019-02-21T02:37:27.271Z,1008.11
2019-02-21T02:38:27.289Z,1008.13
2019-02-21T02:39:27.308Z,1008.15
2019-02-21T02:40:27.327Z,1008.14
2019-02-21T02:41:27.344Z,1008.12
2019-02-21T02:42:27.379Z,1008.13
2019-02-21T02:43:27.381Z,1008.14
2019-02-21T02:44:27.399Z,1008.15
2019-02-21T02:45:27.419Z,1008.11
2019-02-21T02:46:27.437Z,1008.14
2019-02-21T02:47:27.460Z,1008.14
2019-02-21T02:48:27.474Z,1008.15
2019-02-21T02:49:27.493Z,1008.19
2019-02-21T02:50:27.514Z,1008.18
2019-02-21T02:51:27.530Z,1008.16
2019-02-21T02:52:27.547Z,1008.17
2019-02-21T02:53:27.566Z,1008.17
2019-02-21T02:54:27.584Z,1008.21
2019-02-21T02:55:27.605Z,1008.16
2019-02-21T02:56:27.621Z,1008.19
2019-02-21T02:57:27.640Z,1008.23
2019-02-21T02:58:27.659Z,1008.22
2019-02-21T02:59:39.995Z,1008.29
2019-02-21T03:00:27.695Z,1008.28
2019-02-21T03:01:34.528Z,1008.32
2019-02-21T03:02:27.742Z,1008.32
2019-02-21T03:03:27.751Z,1008.3
2019-02-21T03:04:27.772Z,1008.27
2019-02-21T03:05:27.787Z,1008.32
2019-02-21T03:06:27.805Z,1008.32
2019-02-21T03:07:27.823Z,1008.31
2019-02-21T03:08:27.843Z,1008.32
2019-02-21T03:09:27.863Z,1008.33
2019-02-21T03:10:27.880Z,1008.32
2019-02-21T03:11:27.900Z,1008.28
2019-02-21T03:12:27.918Z,1008.3
2019-02-21T03:13:27.934Z,1008.28
2019-02-21T03:14:27.955Z,1008.28
2019-02-21T03:15:27.973Z,1008.29
2019-02-21T03:16:27.991Z,1008.27
2019-02-21T03:17:28.010Z,1008.25
2019-02-21T03:18:28.028Z,1008.27
2019-02-21T03:19:28.046Z,1008.25
2019-02-21T03:20:28.064Z,1008.25
2019-02-21T03:21:28.083Z,1008.26
2019-02-21T03:22:28.102Z,1008.26
2019-02-21T03:23:28.133Z,1008.26
2019-02-21T03:24:28.137Z,1008.3
2019-02-21T03:25:28.159Z,1008.33
2019-02-21T03:26:28.175Z,1008.31
2019-02-21T03:27:28.193Z,1008.28
2019-02-21T03:28:28.211Z,1008.25
2019-02-21T03:29:28.229Z,1008.3
2019-02-21T03:30:28.249Z,1008.28
2019-02-21T03:31:28.267Z,1008.28
2019-02-21T03:32:28.436Z,1008.3
2019-02-21T03:33:28.318Z,1008.26
2019-02-21T03:34:28.324Z,1008.26
2019-02-21T03:35:28.353Z,1008.23
2019-02-21T03:36:28.360Z,1008.24
2019-02-21T03:37:28.384Z,1008.26
2019-02-21T03:38:28.400Z,1008.24
2019-02-21T03:39:28.413Z,1008.25
2019-02-21T03:40:28.433Z,1008.25
2019-02-21T03:41:28.455Z,1008.26
2019-02-21T03:42:28.470Z,1008.28
2019-02-21T03:43:28.551Z,1008.26
2019-02-21T03:44:28.522Z,1008.31
2019-02-21T03:45:28.526Z,1008.27
2019-02-21T03:46:28.545Z,1008.31
2019-02-21T03:47:28.560Z,1008.25
2019-02-21T03:48:28.579Z,1008.25
2019-02-21T03:49:28.612Z,1008.21
2019-02-21T03:50:28.616Z,1008.24
2019-02-21T03:51:28.634Z,1008.2
2019-02-21T03:52:28.653Z,1008.24
2019-02-21T03:53:28.673Z,1008.24
2019-02-21T03:54:28.694Z,1008.26
2019-02-21T03:55:28.707Z,1008.2
2019-02-21T03:56:28.736Z,1008.25
2019-02-21T03:57:28.744Z,1008.26
2019-02-21T03:58:28.763Z,1008.25
2019-02-21T03:59:28.783Z,1008.27
2019-02-21T04:00:28.802Z,1008.27
2019-02-21T04:01:28.821Z,1008.26
2019-02-21T04:02:28.837Z,1008.25
2019-02-21T04:03:28.855Z,1008.22
2019-02-21T04:04:28.874Z,1008.25
2019-02-21T04:05:28.891Z,1008.26
2019-02-21T04:06:28.914Z,1008.25
2019-02-21T04:07:28.928Z,1008.31
2019-02-21T04:08:28.945Z,1008.33
2019-02-21T04:09:28.965Z,1008.32
2019-02-21T04:10:28.983Z,1008.31
2019-02-21T04:11:29.001Z,1008.28
2019-02-21T04:12:29.022Z,1008.28
2019-02-21T04:13:29.039Z,1008.25
2019-02-21T04:14:29.058Z,1008.24
2019-02-21T04:15:29.075Z,1008.27
2019-02-21T04:16:29.092Z,1008.24
2019-02-21T04:17:29.111Z,1008.28
2019-02-21T04:18:29.130Z,1008.26
2019-02-21T04:19:29.148Z,1008.26
2019-02-21T04:20:29.165Z,1008.23
2019-02-21T04:21:29.190Z,1008.23
2019-02-21T04:22:29.204Z,1008.22
2019-02-21T04:23:29.220Z,1008.22
2019-02-21T04:24:29.240Z,1008.21
2019-02-21T04:25:29.259Z,1008.25
2019-02-21T04:26:29.276Z,1008.27
2019-02-21T04:27:29.296Z,1008.24
2019-02-21T04:28:29.311Z,1008.21
2019-02-21T04:29:29.330Z,1008.21
2019-02-21T04:30:29.348Z,1008.2
2019-02-21T04:31:29.374Z,1008.19
2019-02-21T04:32:29.387Z,1008.2
2019-02-21T04:33:29.403Z,1008.18
2019-02-21T04:34:29.422Z,1008.17
2019-02-21T04:35:29.443Z,1008.16
2019-02-21T04:36:29.459Z,1008.19
2019-02-21T04:37:29.475Z,1008.21
2019-02-21T04:38:29.494Z,1008.19
2019-02-21T04:39:29.521Z,1008.2
2019-02-21T04:40:29.544Z,1008.19
2019-02-21T04:41:29.548Z,1008.17
2019-02-21T04:42:29.570Z,1008.18
2019-02-21T04:43:29.590Z,1008.19
2019-02-21T04:44:29.612Z,1008.17
2019-02-21T04:45:29.621Z,1008.19
2019-02-21T04:46:29.641Z,1008.17
2019-02-21T04:47:29.657Z,1008.17
2019-02-21T04:48:29.687Z,1008.19
2019-02-21T04:49:29.695Z,1008.15
2019-02-21T04:50:29.713Z,1008.15
2019-02-21T04:51:29.733Z,1008.17
2019-02-21T04:52:29.762Z,1008.18
2019-02-21T04:53:29.768Z,1008.11
2019-02-21T04:54:29.788Z,1008.1
2019-02-21T04:55:29.809Z,1008.07
2019-02-21T04:56:29.821Z,1008.12
2019-02-21T04:57:29.841Z,1008.11
2019-02-21T04:58:29.861Z,1008.12
2019-02-21T04:59:29.883Z,1008.08
2019-02-21T05:00:29.896Z,1008.05
2019-02-21T05:01:29.918Z,1008.11
2019-02-21T05:02:29.969Z,1008.09
2019-02-21T05:03:29.953Z,1008.09
2019-02-21T05:04:29.967Z,1008.08
2019-02-21T05:05:29.989Z,1008.06
2019-02-21T05:06:30.010Z,1008.02
2019-02-21T05:07:30.021Z,1008.03
2019-02-21T05:08:30.042Z,1008.04
2019-02-21T05:09:30.058Z,1008.05
2019-02-21T05:10:30.192Z,1008.03
2019-02-21T05:11:30.098Z,1007.99
2019-02-21T05:12:30.122Z,1008.01
2019-02-21T05:13:30.154Z,1008
2019-02-21T05:14:30.150Z,1008.02
2019-02-21T05:15:30.168Z,1007.96
2019-02-21T05:16:30.187Z,1007.98
2019-02-21T05:17:30.207Z,1007.98
2019-02-21T05:18:30.223Z,1007.97
2019-02-21T05:19:30.242Z,1007.97
2019-02-21T05:20:30.259Z,1007.98
2019-02-21T05:21:30.291Z,1008
2019-02-21T05:22:30.295Z,1008
2019-02-21T05:23:30.316Z,1007.98
2019-02-21T05:24:30.333Z,1007.96
2019-02-21T05:25:30.351Z,1007.93
2019-02-21T05:26:30.370Z,1007.91
2019-02-21T05:27:30.388Z,1007.92
2019-02-21T05:28:30.430Z,1007.92
2019-02-21T05:29:30.424Z,1007.95
2019-02-21T05:30:30.445Z,1007.93
2019-02-21T05:31:30.461Z,1007.96
2019-02-21T05:32:40.435Z,1008.02
2019-02-21T05:33:30.497Z,1007.97
2019-02-21T05:34:30.515Z,1008
2019-02-21T05:35:31.388Z,1007.97
2019-02-21T05:36:30.551Z,1007.97
2019-02-21T05:37:30.570Z,1008
2019-02-21T05:38:30.591Z,1007.98
2019-02-21T05:39:30.634Z,1007.95
2019-02-21T05:40:30.626Z,1008.04
2019-02-21T05:41:30.644Z,1008.01
2019-02-21T05:42:30.665Z,1008.03
2019-02-21T05:43:31.506Z,1008.04
2019-02-21T05:44:33.326Z,1008
2019-02-21T05:45:30.772Z,1008
2019-02-21T05:46:30.739Z,1008
2019-02-21T05:47:30.753Z,1007.96
2019-02-21T05:48:30.773Z,1008
2019-02-21T05:49:30.791Z,1007.97
2019-02-21T05:50:30.825Z,1008.01
2019-02-21T05:51:30.826Z,1007.95
2019-02-21T05:52:30.844Z,1007.95
2019-02-21T05:53:30.864Z,1007.98
2019-02-21T05:54:30.881Z,1007.99
2019-02-21T05:55:30.902Z,1007.97
2019-02-21T05:56:30.920Z,1007.97
2019-02-21T05:57:30.937Z,1008
2019-02-21T05:58:30.954Z,1008.01
2019-02-21T05:59:30.975Z,1008.01
2019-02-21T06:00:30.993Z,1008.01
2019-02-21T06:01:31.010Z,1008.04
2019-02-21T06:02:31.028Z,1008.01
2019-02-21T06:03:31.045Z,1007.99
2019-02-21T06:04:31.064Z,1008
2019-02-21T06:05:31.082Z,1008.03
2019-02-21T06:06:31.103Z,1008.06
2019-02-21T06:07:31.120Z,1008.06
2019-02-21T06:08:31.138Z,1008.03
2019-02-21T06:09:31.157Z,1008.05
2019-02-21T06:10:31.176Z,1008.04
2019-02-21T06:11:31.229Z,1008.06
2019-02-21T06:12:33.864Z,1008.06
2019-02-21T06:13:31.229Z,1008.1
2019-02-21T06:14:31.278Z,1008.05
2019-02-21T06:15:31.270Z,1008.1
2019-02-21T06:16:32.635Z,1008.08
2019-02-21T06:17:31.301Z,1008.12
2019-02-21T06:18:31.321Z,1008.14
2019-02-21T06:19:31.341Z,1008.19
2019-02-21T06:20:33.631Z,1008.2
2019-02-21T06:21:31.382Z,1008.19
2019-02-21T06:22:31.393Z,1008.18
2019-02-21T06:23:31.411Z,1008.2
2019-02-21T06:24:31.430Z,1008.22
2019-02-21T06:25:31.459Z,1008.2
2019-02-21T06:26:31.471Z,1008.26
2019-02-21T06:27:31.485Z,1008.24
2019-02-21T06:28:31.507Z,1008.3
2019-02-21T06:29:33.938Z,1008.32
2019-02-21T06:30:31.542Z,1008.32
2019-02-21T06:31:31.567Z,1008.33
2019-02-21T06:32:31.577Z,1008.35
2019-02-21T06:33:31.597Z,1008.4
2019-02-21T06:34:31.855Z,1008.39
2019-02-21T06:35:31.633Z,1008.42
2019-02-21T06:36:31.650Z,1008.41
2019-02-21T06:37:31.669Z,1008.47
2019-02-21T06:38:33.598Z,1008.49
2019-02-21T06:39:31.706Z,1008.49
2019-02-21T06:40:31.724Z,1008.5
2019-02-21T06:41:31.746Z,1008.49
2019-02-21T06:42:31.761Z,1008.51
2019-02-21T06:43:31.780Z,1008.52
2019-02-21T06:44:31.798Z,1008.51
2019-02-21T06:45:31.816Z,1008.55
2019-02-21T06:46:31.836Z,1008.54
2019-02-21T06:47:31.853Z,1008.55
2019-02-21T06:48:34.810Z,1008.56
2019-02-21T06:49:32.935Z,1008.55
2019-02-21T06:50:31.908Z,1008.62
2019-02-21T06:51:31.925Z,1008.59
2019-02-21T06:52:31.944Z,1008.63
2019-02-21T06:53:31.966Z,1008.61
2019-02-21T06:54:31.979Z,1008.6
2019-02-21T06:55:32.000Z,1008.6
2019-02-21T06:56:32.017Z,1008.64
2019-02-21T06:57:32.035Z,1008.63
2019-02-21T06:58:32.054Z,1008.68
2019-02-21T06:59:41.839Z,1008.69
2019-02-21T07:00:32.090Z,1008.69
2019-02-21T07:01:32.111Z,1008.66
2019-02-21T07:02:32.128Z,1008.66
2019-02-21T07:03:32.198Z,1008.6
2019-02-21T07:04:33.341Z,1008.65
2019-02-21T07:05:32.184Z,1008.62
2019-02-21T07:06:32.594Z,1008.62
2019-02-21T07:07:32.234Z,1008.61
2019-02-21T07:08:32.239Z,1008.61
2019-02-21T07:09:32.258Z,1008.6
2019-02-21T07:10:32.277Z,1008.65
2019-02-21T07:11:32.296Z,1008.66
2019-02-21T07:12:32.315Z,1008.67
2019-02-21T07:13:32.347Z,1008.66
2019-02-21T07:14:34.390Z,1008.63
2019-02-21T07:15:32.368Z,1008.62
2019-02-21T07:16:32.386Z,1008.63
2019-02-21T07:17:32.405Z,1008.62
2019-02-21T07:18:32.422Z,1008.64
2019-02-21T07:19:32.443Z,1008.65
2019-02-21T07:20:32.460Z,1008.64
2019-02-21T07:21:32.480Z,1008.63
2019-02-21T07:22:32.500Z,1008.6
2019-02-21T07:23:42.735Z,1008.55
2019-02-21T07:24:32.535Z,1008.6
2019-02-21T07:25:32.651Z,1008.6
2019-02-21T07:26:32.573Z,1008.59
2019-02-21T07:27:32.591Z,1008.59
2019-02-21T07:28:32.609Z,1008.59
2019-02-21T07:29:32.627Z,1008.64
2019-02-21T07:30:32.650Z,1008.62
2019-02-21T07:31:32.823Z,1008.6
2019-02-21T07:32:32.683Z,1008.63
2019-02-21T07:33:32.703Z,1008.64
2019-02-21T07:34:32.724Z,1008.66
2019-02-21T07:35:32.741Z,1008.64
2019-02-21T07:36:32.757Z,1008.67
2019-02-21T07:37:32.775Z,1008.69
2019-02-21T07:38:32.821Z,1008.7
2019-02-21T07:39:35.827Z,1008.73
2019-02-21T07:40:32.834Z,1008.75
2019-02-21T07:41:32.847Z,1008.76
2019-02-21T07:42:32.868Z,1008.78
2019-02-21T07:43:32.889Z,1008.77
2019-02-21T07:44:32.906Z,1008.8
2019-02-21T07:45:32.924Z,1008.82
2019-02-21T07:46:32.942Z,1008.81
2019-02-21T07:47:32.966Z,1008.81
2019-02-21T07:48:32.979Z,1008.85
2019-02-21T07:49:32.998Z,1008.81
2019-02-21T07:50:33.017Z,1008.8
2019-02-21T07:51:33.039Z,1008.78
2019-02-21T07:52:33.054Z,1008.76
2019-02-21T07:53:33.072Z,1008.79
2019-02-21T07:54:33.091Z,1008.85
2019-02-21T07:55:33.109Z,1008.85
2019-02-21T07:56:41.434Z,1008.85
2019-02-21T07:57:33.147Z,1008.84
2019-02-21T07:58:33.165Z,1008.87
2019-02-21T07:59:33.185Z,1008.91
2019-02-21T08:00:33.205Z,1008.88
2019-02-21T08:01:33.224Z,1008.95
2019-02-21T08:02:33.241Z,1008.92
2019-02-21T08:03:43.717Z,1008.96
2019-02-21T08:04:33.279Z,1008.94
2019-02-21T08:05:33.298Z,1008.93
2019-02-21T08:06:33.316Z,1008.93
2019-02-21T08:07:33.334Z,1008.92
2019-02-21T08:08:33.362Z,1008.94
2019-02-21T08:09:33.371Z,1008.94
2019-02-21T08:10:34.085Z,1008.96
2019-02-21T08:11:33.409Z,1008.99
2019-02-21T08:12:33.433Z,1008.99
2019-02-21T08:13:33.455Z,1009
2019-02-21T08:14:33.465Z,1009.02
2019-02-21T08:15:33.488Z,1009.02
2019-02-21T08:16:33.507Z,1009.03
2019-02-21T08:17:33.521Z,1009.04
2019-02-21T08:18:33.540Z,1008.98
2019-02-21T08:19:33.566Z,1009.01
2019-02-21T08:20:38.142Z,1009.05
2019-02-21T08:21:33.705Z,1009.08
2019-02-21T08:22:33.616Z,1009.04
2019-02-21T08:23:33.643Z,1009.09
2019-02-21T08:24:33.652Z,1009.09
2019-02-21T08:25:33.671Z,1009.11
2019-02-21T08:26:33.691Z,1009.1
2019-02-21T08:27:35.248Z,1009.09
2019-02-21T08:28:33.727Z,1009.09
2019-02-21T08:29:33.745Z,1009.09
2019-02-21T08:30:33.766Z,1009.12
2019-02-21T08:31:33.785Z,1009.18
2019-02-21T08:32:33.801Z,1009.17
2019-02-21T08:33:33.821Z,1009.18
2019-02-21T08:34:33.839Z,1009.21
2019-02-21T08:35:33.859Z,1009.21
2019-02-21T08:36:33.877Z,1009.22
2019-02-21T08:37:36.001Z,1009.24
2019-02-21T08:38:33.914Z,1009.22
2019-02-21T08:39:33.933Z,1009.29
2019-02-21T08:40:33.951Z,1009.28
2019-02-21T08:41:33.970Z,1009.28
2019-02-21T08:42:33.988Z,1009.3
2019-02-21T08:43:34.007Z,1009.29
2019-02-21T08:44:34.026Z,1009.27
2019-02-21T08:45:34.045Z,1009.29
2019-02-21T08:46:34.061Z,1009.26
2019-02-21T08:47:34.082Z,1009.3
2019-02-21T08:48:34.101Z,1009.28
2019-02-21T08:49:34.120Z,1009.34
2019-02-21T08:50:34.138Z,1009.33
2019-02-21T08:51:34.157Z,1009.28
2019-02-21T08:52:34.175Z,1009.34
2019-02-21T08:53:34.193Z,1009.33
2019-02-21T08:54:34.212Z,1009.33
2019-02-21T08:55:34.237Z,1009.31
2019-02-21T08:56:34.249Z,1009.31
2019-02-21T08:57:34.267Z,1009.32
2019-02-21T08:58:34.286Z,1009.28
2019-02-21T08:59:34.311Z,1009.29
2019-02-21T09:00:34.324Z,1009.29
2019-02-21T09:01:34.342Z,1009.33
2019-02-21T09:02:35.945Z,1009.34
2019-02-21T09:03:34.381Z,1009.38
2019-02-21T09:04:34.396Z,1009.34
2019-02-21T09:05:34.416Z,1009.4
2019-02-21T09:06:34.435Z,1009.37
2019-02-21T09:07:34.455Z,1009.37
2019-02-21T09:08:37.025Z,1009.4
2019-02-21T09:09:34.491Z,1009.38
2019-02-21T09:10:34.510Z,1009.41
2019-02-21T09:11:34.529Z,1009.39
2019-02-21T09:12:34.545Z,1009.37
2019-02-21T09:13:34.564Z,1009.39
2019-02-21T09:14:34.584Z,1009.35
2019-02-21T09:15:34.602Z,1009.37
2019-02-21T09:16:34.622Z,1009.39
2019-02-21T09:17:34.640Z,1009.38
2019-02-21T09:18:34.659Z,1009.42
2019-02-21T09:19:36.663Z,1009.41
2019-02-21T09:20:34.695Z,1009.45
2019-02-21T09:21:34.715Z,1009.42
2019-02-21T09:22:34.735Z,1009.45
2019-02-21T09:23:34.753Z,1009.47
2019-02-21T09:24:38.673Z,1009.42
2019-02-21T09:25:34.792Z,1009.41
2019-02-21T09:26:34.842Z,1009.43
2019-02-21T09:27:34.828Z,1009.48
2019-02-21T09:28:34.997Z,1009.48
2019-02-21T09:29:34.866Z,1009.48
2019-02-21T09:30:34.886Z,1009.52
2019-02-21T09:31:34.904Z,1009.47
2019-02-21T09:32:34.922Z,1009.51
2019-02-21T09:33:37.030Z,1009.49
2019-02-21T09:34:34.963Z,1009.52
2019-02-21T09:35:34.980Z,1009.51
2019-02-21T09:36:34.999Z,1009.53
2019-02-21T09:37:35.018Z,1009.52
2019-02-21T09:38:35.037Z,1009.52
2019-02-21T09:39:35.057Z,1009.52
2019-02-21T09:40:35.076Z,1009.53
2019-02-21T09:41:35.094Z,1009.49
2019-02-21T09:42:35.112Z,1009.51
2019-02-21T09:43:35.131Z,1009.51
2019-02-21T09:44:35.858Z,1009.53
2019-02-21T09:45:35.170Z,1009.54
2019-02-21T09:46:35.193Z,1009.51
2019-02-21T09:47:35.209Z,1009.52
2019-02-21T09:48:35.226Z,1009.55
2019-02-21T09:49:35.244Z,1009.54
2019-02-21T09:50:35.265Z,1009.52
2019-02-21T09:51:36.599Z,1009.59
2019-02-21T09:52:35.301Z,1009.59
2019-02-21T09:53:35.326Z,1009.67
2019-02-21T09:54:35.340Z,1009.65
2019-02-21T09:55:35.358Z,1009.64
2019-02-21T09:56:35.377Z,1009.63
2019-02-21T09:57:35.397Z,1009.59
2019-02-21T09:58:35.416Z,1009.64
2019-02-21T09:59:35.433Z,1009.64
2019-02-21T10:00:36.037Z,1009.59
2019-02-21T10:01:35.471Z,1009.61
2019-02-21T10:02:35.491Z,1009.56
2019-02-21T10:03:35.515Z,1009.63
2019-02-21T10:04:35.531Z,1009.66
2019-02-21T10:05:35.549Z,1009.66
2019-02-21T10:06:35.566Z,1009.66
2019-02-21T10:07:37.109Z,1009.66
2019-02-21T10:08:35.604Z,1009.69
2019-02-21T10:09:35.624Z,1009.66
2019-02-21T10:10:35.644Z,1009.65
2019-02-21T10:11:35.661Z,1009.68
2019-02-21T10:12:35.681Z,1009.65
2019-02-21T10:13:35.699Z,1009.7
2019-02-21T10:14:35.718Z,1009.7
2019-02-21T10:15:35.738Z,1009.66
2019-02-21T10:16:35.760Z,1009.66
2019-02-21T10:17:35.776Z,1009.66
2019-02-21T10:18:35.796Z,1009.69
2019-02-21T10:19:35.823Z,1009.66
2019-02-21T10:20:35.848Z,1009.64
2019-02-21T10:21:35.851Z,1009.66
2019-02-21T10:22:35.871Z,1009.63
2019-02-21T10:23:35.890Z,1009.64
2019-02-21T10:24:35.912Z,1009.66
2019-02-21T10:25:35.929Z,1009.66
2019-02-21T10:26:35.948Z,1009.68
2019-02-21T10:27:35.967Z,1009.71
2019-02-21T10:28:35.988Z,1009.69
2019-02-21T10:29:36.004Z,1009.68
2019-02-21T10:30:36.437Z,1009.64
2019-02-21T10:31:36.047Z,1009.66
2019-02-21T10:32:36.065Z,1009.73
2019-02-21T10:33:46.218Z,1009.68
2019-02-21T10:34:42.865Z,1009.71
2019-02-21T10:35:36.120Z,1009.73
2019-02-21T10:36:36.139Z,1009.7
2019-02-21T10:37:36.158Z,1009.71
2019-02-21T10:38:36.178Z,1009.73
2019-02-21T10:39:36.248Z,1009.7
2019-02-21T10:40:36.216Z,1009.67
2019-02-21T10:41:36.236Z,1009.66
2019-02-21T10:42:36.254Z,1009.65
2019-02-21T10:43:36.274Z,1009.6
2019-02-21T10:44:36.294Z,1009.64
2019-02-21T10:45:47.036Z,1009.6
2019-02-21T10:46:36.350Z,1009.6
2019-02-21T10:47:36.350Z,1009.54
2019-02-21T10:48:36.369Z,1009.56
2019-02-21T10:49:36.389Z,1009.52
2019-02-21T10:50:36.407Z,1009.53
2019-02-21T10:51:36.427Z,1009.46
2019-02-21T10:52:36.445Z,1009.45
2019-02-21T10:53:36.466Z,1009.43
2019-02-21T10:54:36.484Z,1009.4
2019-02-21T10:55:36.503Z,1009.41
2019-02-21T10:56:36.526Z,1009.45
2019-02-21T10:57:36.551Z,1009.45
2019-02-21T10:58:36.561Z,1009.44
2019-02-21T10:59:46.113Z,1009.48
2019-02-21T11:00:36.607Z,1009.47
2019-02-21T11:01:36.620Z,1009.49
2019-02-21T11:02:36.637Z,1009.47
2019-02-21T11:03:36.659Z,1009.51
2019-02-21T11:04:36.677Z,1009.49
2019-02-21T11:05:36.696Z,1009.52
2019-02-21T11:06:36.716Z,1009.5
2019-02-21T11:07:36.741Z,1009.48
2019-02-21T11:08:36.755Z,1009.46
2019-02-21T11:09:36.774Z,1009.48
2019-02-21T11:10:36.793Z,1009.51
2019-02-21T11:11:36.811Z,1009.46
2019-02-21T11:12:36.831Z,1009.44
2019-02-21T11:13:36.852Z,1009.45
2019-02-21T11:14:46.907Z,1009.44
2019-02-21T11:15:36.890Z,1009.45
2019-02-21T11:16:36.908Z,1009.42
2019-02-21T11:17:36.926Z,1009.41
2019-02-21T11:18:36.946Z,1009.38
2019-02-21T11:19:36.967Z,1009.41
2019-02-21T11:20:36.985Z,1009.38
2019-02-21T11:21:37.004Z,1009.37
2019-02-21T11:22:37.023Z,1009.37
2019-02-21T11:23:37.044Z,1009.42
2019-02-21T11:24:37.061Z,1009.38
2019-02-21T11:25:37.081Z,1009.38
2019-02-21T11:26:37.101Z,1009.39
2019-02-21T11:27:37.121Z,1009.38
2019-02-21T11:28:37.140Z,1009.39
2019-02-21T11:29:37.170Z,1009.38
2019-02-21T11:30:37.178Z,1009.44
2019-02-21T11:31:37.197Z,1009.37
2019-02-21T11:32:37.216Z,1009.41
2019-02-21T11:33:37.237Z,1009.41
2019-02-21T11:34:38.121Z,1009.37
2019-02-21T11:35:37.274Z,1009.36
2019-02-21T11:36:37.298Z,1009.39
2019-02-21T11:37:43.111Z,1009.38
2019-02-21T11:38:37.333Z,1009.36
2019-02-21T11:39:37.421Z,1009.28
2019-02-21T11:40:37.390Z,1009.3
2019-02-21T11:41:37.390Z,1009.27
2019-02-21T11:42:37.411Z,1009.22
2019-02-21T11:43:37.439Z,1009.22
2019-02-21T11:44:37.450Z,1009.25
2019-02-21T11:45:37.468Z,1009.24
2019-02-21T11:46:37.488Z,1009.23
2019-02-21T11:47:37.510Z,1009.21
2019-02-21T11:48:37.527Z,1009.26
2019-02-21T11:49:37.554Z,1009.25
2019-02-21T11:50:37.566Z,1009.32
2019-02-21T11:51:37.588Z,1009.28
2019-02-21T11:52:37.604Z,1009.23
2019-02-21T11:53:38.215Z,1009.27
2019-02-21T11:54:37.647Z,1009.24
2019-02-21T11:55:37.666Z,1009.29
2019-02-21T11:56:37.683Z,1009.28
2019-02-21T11:57:37.701Z,1009.31
2019-02-21T11:58:37.724Z,1009.32
2019-02-21T11:59:37.747Z,1009.34
2019-02-21T12:00:37.760Z,1009.34
2019-02-21T12:01:39.677Z,1009.3
2019-02-21T12:02:38.940Z,1009.31
2019-02-21T12:03:37.826Z,1009.27
2019-02-21T12:04:37.840Z,1009.26
2019-02-21T12:05:37.860Z,1009.21
2019-02-21T12:06:37.878Z,1009.18
2019-02-21T12:07:37.898Z,1009.16
2019-02-21T12:08:37.916Z,1009.2